Sunday, January 20, 2019, 2:16 AM EST
Back to Local

KALB, Albany International Airport

Location: Latham, NY, United States Lat: 42.75
Local Time: 2:16 AM EST ( 7:16 GMT) Lon: -73.8
Time Zone: US/Eastern Elev: 285 ft

Show me the last for .
Show Decoded

2019-01-20 01:51 METAR KALB 200651Z 30003KT 1/4SM R01/2800V3500FT +SN FZFG VV005 M13/M16 A2989
                 RMK AO2 SLP127 SNINCR 1/7 P0014 T11331161 =
2019-01-20 01:41 METAR KALB 200641Z 30004KT 1/4SM R01/3000V3500FT +SN FZFG VV005 M13/M16 A2989
                 RMK AO2 P0011 T11331161 =
2019-01-20 01:05 METAR KALB 200605Z 32004KT 1/4SM R01/2600V3000FT +SN FZFG VV004 M13/M16 A2992
                 RMK AO2 PRESFR P0004 T11331161 =
2019-01-20 00:51 METAR KALB 200551Z 33003KT 1/4SM R01/2600V3000FT +SN VV005 M13/M16 A2994 RMK AO2
                 SLP143 SNINCR 2/6 4/006 P0014 60039 T11331161 11122 21139 58059 =
2019-01-20 00:04 METAR KALB 200504Z 35003KT 1/4SM R01/2800V3000FT +SN VV005 M13/M17 A2998 RMK AO2
                 P0003 T11331167 =
2019-01-19 23:51 METAR KALB 200451Z 36004KT 1/2SM R01/3500V5000FT SN VV006 M13/M17 A2999 RMK AO2
                 SLP162 SNINCR 1/4 P0010 T11331167 410061139 =
2019-01-19 23:17 METAR KALB 200417Z 36006KT 1/2SM R01/4500VP6000FT SN VV008 M13/M17 A3004 =
2019-01-19 23:03 METAR KALB 200403Z COR 36008KT 1/2SM R01/5000VP6000FT SN VV010 M13/M17 A3005 RMK
                 AO2 SNINCR 1/3 P0002 T11331172 =
2019-01-19 22:51 METAR KALB 200351Z 36007KT 3/4SM R01/6000VP6000FT -SN VV010 M13/M17 A3005 RMK
                 AO2 SLP183 P0006 T11331172 =
2019-01-19 22:43 METAR KALB 200343Z 02007KT 3/4SM R01/P6000FT -SN VV010 M13/M17 A3006 RMK AO2
                 P0005 T11331172 =
2019-01-19 21:51 METAR KALB 200251Z 02006KT 1SM R01/6000VP6000FT -SN VV011 M13/M17 A3011 RMK AO2
                 TWR VIS 1 1/4 SLP202 P0004 60009 T11281167 58029 =
2019-01-19 21:37 METAR KALB 200237Z 02005KT 1 1/4SM -SN OVC014 M13/M16 A3012 =
2019-01-19 20:51 METAR KALB 200151Z 01008KT 1 1/4SM -SN OVC019 M13/M17 A3013 RMK AO2 SLP209 P0003
                 T11281167 =
2019-01-19 19:51 METAR KALB 200051Z 01006KT 1 1/4SM -SN OVC017 M13/M17 A3018 RMK AO2 SLP225 P0002
                 T11281167 =
2019-01-19 18:51 METAR KALB 192351Z 03008KT 1 1/4SM -SN OVC014 M12/M15 A3020 RMK AO2 SLP231 4/001
                 P0003 60006 T11171150 11072 21117 56021 =
2019-01-19 18:28 METAR KALB 192328Z 01005KT 1SM R01/P6000FT -SN OVC014 M12/M15 A3021 RMK AO2 SFC
                 VIS 1 1/4 P0002 T11171150 =
2019-01-19 17:51 METAR KALB 192251Z 35008KT 1SM R01/P6000FT -SN OVC023 M12/M15 A3021 RMK AO2 SFC
                 VIS 1 3/4 SLP234 P0002 T11171150 =
2019-01-19 16:51 METAR KALB 192151Z 02007KT 1SM R01/P6000FT -SN OVC023 M11/M14 A3021 RMK AO2
                 SLP236 P0001 T11111144 =
2019-01-19 16:33 METAR KALB 192133Z 03009KT 1SM R01/5500VP6000FT -SN OVC021 M11/M15 A3022 RMK AO2
                 P0001 T11061150 =
2019-01-19 16:25 METAR KALB 192125Z 04011KT 2SM -SN OVC027 M11/M15 A3023 RMK AO2 TWR VIS 2 1/2
                 PRESFR P0001 T11061150 =
2019-01-19 16:17 METAR KALB 192117Z 03008KT 2SM -SN OVC031 M10/M15 A3024 RMK AO2 TWR VIS 2 1/2
                 P0000 T11001150 =
2019-01-19 15:51 METAR KALB 192051Z 02007KT 10SM -SN OVC046 M09/M16 A3026 RMK AO2 SNB28 SLP251
                 P0000 60000 T10941161 55002 =
2019-01-19 14:51 METAR KALB 191951Z 36009KT 10SM OVC041 M09/M16 A3025 RMK AO2 SLP246 T10891161 =
2019-01-19 13:51 METAR KALB 191851Z 36007KT 10SM OVC043 M08/M16 A3024 RMK AO2 SLP244 T10781156 =
2019-01-19 12:51 METAR KALB 191751Z 35008KT 10SM OVC044 M07/M14 A3026 RMK AO2 SLP253 60000
                 T10721144 11050 21083 58024 =
2019-01-19 11:51 METAR KALB 191651Z 36008KT 10SM BKN043 OVC080 M07/M14 A3030 RMK AO2 SLP266 OCNL
                 BINOVC T10721144 =
2019-01-19 10:51 METAR KALB 191551Z 02010KT 10SM FEW041 OVC090 M08/M14 A3033 RMK AO2 SLP274 OCNL
                 BINOVC T10781144 =
2019-01-19 09:51 METAR KALB 191451Z 36010KT 10SM SCT043 OVC085 M07/M14 A3034 RMK AO2 SLP277 60000
                 T10721139 51026 =
2019-01-19 08:51 METAR KALB 191351Z 34007KT 10SM OVC043 M07/M13 A3033 RMK AO2 SLP274 BINOVC
                 T10671128 =
2019-01-19 07:51 METAR KALB 191251Z 35006KT 10SM OVC043 M06/M11 A3029 RMK AO2 SNE12 SLP262 BINOVC
                 P0000 T10611111 =
2019-01-19 06:51 METAR KALB 191151Z 02008KT 10SM -SN OVC044 M05/M10 A3026 RMK AO2 SLP250 PCPN VRY
                 LGT BINOVC 4/001 P0000 60000 T10501100 11017 21050 51012 =
2019-01-19 05:51 METAR KALB 191051Z 02006KT 10SM -SN OVC043 M04/M09 A3025 RMK AO2 SLP247 BINOVC
                 P0000 T10441094 =
2019-01-19 04:51 METAR KALB 190951Z 01008KT 10SM -SN OVC043 M04/M09 A3023 RMK AO2 SNB48 SLP242
                 PCPN VRY LGT P0000 T10391089 =
2019-01-19 03:51 METAR KALB 190851Z 31005KT 10SM OVC047 M03/M08 A3023 RMK AO2 SLP238 OCNL BINOVC
                 T10281083 51023 =
2019-01-19 02:51 METAR KALB 190751Z 30008KT 10SM FEW040 SCT050 BKN260 M03/M09 A3021 RMK AO2
                 SLP234 T10331089 =

Support USWX by starting your Amazon purchase here.